Time;durP1;ratioP1;P1;durP2;ratioP2;P2;SDS_P1;SDS_P2;PMS_P1;PMS_P2;Temp;Humidity;BMP_temperature;BMP_pressure;BME280_temperature;BME280_humidity;BME280_pressure;Samples;Min_cycle;Max_cycle;Signal;HPM_P1;HPM_P2
2020/12/24 00:01:28;;;;;;;5.70;5.30;;;10.20;99.90;;;;;;5090228;28;20291;-85
2020/12/24 00:03:54;;;;;;;6.20;5.70;;;10.20;99.90;;;;;;5089973;28;20199;-84
2020/12/24 00:06:21;;;;;;;8.50;5.87;;;10.20;99.90;;;;;;5090275;28;20273;-85
2020/12/24 00:08:47;;;;;;;5.53;5.03;;;10.20;99.90;;;;;;5090469;28;20203;-85
2020/12/24 00:11:13;;;;;;;6.53;5.93;;;10.30;99.90;;;;;;5090614;28;20212;-86
2020/12/24 00:13:41;;;;;;;6.13;5.53;;;10.30;99.90;;;;;;5090704;28;20600;-85
2020/12/24 00:16:07;;;;;;;5.63;5.20;;;10.30;99.90;;;;;;5090365;28;20206;-87
2020/12/24 00:18:33;;;;;;;5.43;4.97;;;10.20;99.90;;;;;;5090934;28;20273;-82
2020/12/24 00:21:00;;;;;;;6.17;5.67;;;10.20;99.90;;;;;;5090333;28;20239;-83
2020/12/24 00:23:26;;;;;;;5.47;5.07;;;10.30;99.90;;;;;;5090879;28;20224;-83
2020/12/24 00:25:52;;;;;;;5.80;5.23;;;10.30;99.90;;;;;;5090465;28;20455;-83
2020/12/24 00:28:19;;;;;;;5.03;4.63;;;10.30;99.90;;;;;;5090793;28;20625;-84
2020/12/24 00:30:46;;;;;;;5.17;4.70;;;10.30;99.90;;;;;;5090472;28;20234;-85
2020/12/24 00:33:14;;;;;;;5.20;4.70;;;10.30;99.90;;;;;;5090603;28;20214;-84
2020/12/24 00:35:40;;;;;;;5.33;4.73;;;10.30;99.90;;;;;;5090202;28;20660;-85
2020/12/24 00:38:07;;;;;;;4.87;4.47;;;10.30;99.90;;;;;;5089962;28;20618;-86
2020/12/24 00:40:33;;;;;;;5.07;4.50;;;10.30;99.90;;;;;;5089779;28;20676;-84
2020/12/24 00:43:00;;;;;;;4.63;4.33;;;10.30;99.90;;;;;;5089796;28;20322;-85
2020/12/24 00:45:26;;;;;;;4.67;4.37;;;10.30;99.90;;;;;;5089503;28;20206;-84
2020/12/24 00:47:53;;;;;;;4.77;4.47;;;10.30;99.90;;;;;;5096500;28;20709;-85
2020/12/24 00:50:20;;;;;;;4.40;4.00;;;10.30;99.90;;;;;;5093625;28;20221;-85
2020/12/24 00:52:46;;;;;;;4.00;3.70;;;10.30;99.90;;;;;;5090194;28;20272;-85
2020/12/24 00:55:12;;;;;;;5.27;3.80;;;10.30;99.90;;;;;;5089529;28;20270;-85
2020/12/24 00:57:39;;;;;;;5.57;3.50;;;10.30;99.90;;;;;;5089892;28;20207;-84
2020/12/24 01:00:07;;;;;;;3.20;3.00;;;10.30;99.90;;;;;;5089535;28;20203;-85
2020/12/24 01:02:33;;;;;;;2.97;2.77;;;10.30;99.90;;;;;;5089800;28;20238;-85
2020/12/24 01:05:00;;;;;;;3.20;2.90;;;10.30;99.90;;;;;;5089404;28;20199;-85
2020/12/24 01:07:27;;;;;;;2.90;2.70;;;10.30;99.90;;;;;;5090975;28;20219;-85
2020/12/24 01:09:53;;;;;;;3.87;3.57;;;10.20;99.90;;;;;;5099786;28;20470;-82
2020/12/24 01:12:19;;;;;;;6.50;6.10;;;10.20;99.90;;;;;;5099534;28;20285;-81
2020/12/24 01:14:46;;;;;;;2.30;2.20;;;10.20;99.90;;;;;;5096575;28;20234;-85
2020/12/24 01:17:12;;;;;;;2.47;1.93;;;10.20;99.90;;;;;;5099249;28;20199;-84
2020/12/24 01:19:38;;;;;;;1.90;1.53;;;10.30;99.90;;;;;;5097806;28;20271;-85
2020/12/24 01:22:06;;;;;;;1.77;1.67;;;10.30;99.90;;;;;;5097892;28;20286;-84
2020/12/24 01:24:32;;;;;;;1.70;1.60;;;10.30;99.90;;;;;;5100543;28;20198;-82
2020/12/24 01:26:58;;;;;;;2.13;1.93;;;10.30;99.90;;;;;;5087610;28;20198;-82
2020/12/24 01:29:25;;;;;;;1.80;1.70;;;10.30;99.90;;;;;;5088226;28;20582;-82
2020/12/24 01:31:51;;;;;;;1.63;1.53;;;10.30;99.90;;;;;;5087989;28;20210;-81
2020/12/24 01:34:19;;;;;;;1.53;1.40;;;10.30;99.90;;;;;;5088156;28;20260;-82
2020/12/24 01:36:46;;;;;;;1.67;1.57;;;10.20;99.90;;;;;;5087429;28;20203;-81
2020/12/24 01:39:14;;;;;;;1.47;1.37;;;10.20;99.90;;;;;;5087935;28;20218;-82
2020/12/24 01:41:41;;;;;;;1.53;1.43;;;10.30;99.90;;;;;;5087553;28;20767;-82
2020/12/24 01:44:07;;;;;;;1.40;1.40;;;10.20;99.90;;;;;;5087851;28;20207;-83
2020/12/24 01:46:34;;;;;;;1.20;1.10;;;10.20;99.90;;;;;;5088069;28;20297;-82
2020/12/24 01:49:00;;;;;;;1.40;1.30;;;10.10;99.90;;;;;;5088003;28;20221;-82
2020/12/24 01:51:28;;;;;;;1.17;1.17;;;10.10;99.90;;;;;;5087828;28;20344;-82
2020/12/24 01:53:56;;;;;;;1.80;1.30;;;10.10;99.90;;;;;;5087498;28;20275;-82
2020/12/24 01:56:24;;;;;;;1.47;1.37;;;10.10;99.90;;;;;;5087739;28;20207;-81
2020/12/24 01:58:51;;;;;;;1.13;1.13;;;10.00;99.90;;;;;;5087576;28;20215;-82
2020/12/24 02:01:18;;;;;;;1.77;1.50;;;10.10;99.90;;;;;;5087622;28;20241;-82
2020/12/24 02:03:44;;;;;;;0.90;0.90;;;10.00;99.90;;;;;;5087763;28;20211;-83
2020/12/24 02:06:11;;;;;;;1.47;1.37;;;10.10;99.90;;;;;;5087936;28;20246;-81
2020/12/24 02:08:37;;;;;;;1.40;1.10;;;10.00;99.90;;;;;;5086612;28;20210;-82
2020/12/24 02:11:04;;;;;;;1.10;1.10;;;10.00;99.90;;;;;;5087698;28;20206;-79
2020/12/24 02:13:31;;;;;;;2.00;1.27;;;9.90;99.90;;;;;;5092168;28;20683;-79
2020/12/24 02:15:58;;;;;;;1.20;1.20;;;9.90;99.90;;;;;;5112285;28;20228;-82
2020/12/24 02:18:25;;;;;;;1.50;1.40;;;9.90;99.90;;;;;;5112334;28;20206;-81
2020/12/24 02:20:52;;;;;;;1.60;1.50;;;9.90;99.90;;;;;;5111845;28;20590;-81
2020/12/24 02:23:19;;;;;;;1.87;1.60;;;9.80;99.90;;;;;;5111861;28;20255;-81
2020/12/24 02:25:45;;;;;;;1.20;1.10;;;9.90;99.90;;;;;;5112053;28;20202;-82
2020/12/24 02:28:12;;;;;;;1.77;1.67;;;9.80;99.90;;;;;;5112220;28;20292;-82
2020/12/24 02:30:38;;;;;;;1.50;1.50;;;9.80;99.90;;;;;;5111999;28;20204;-82
2020/12/24 02:33:05;;;;;;;4.10;1.63;;;9.80;99.90;;;;;;5112033;28;20210;-83
2020/12/24 02:35:32;;;;;;;1.60;1.50;;;9.80;99.90;;;;;;5112256;28;20258;-83
2020/12/24 02:38:00;;;;;;;2.10;1.50;;;9.80;99.90;;;;;;5111760;28;20294;-81
2020/12/24 02:40:26;;;;;;;1.50;1.40;;;9.80;99.90;;;;;;5099352;28;20682;-82
2020/12/24 02:42:52;;;;;;;1.80;1.70;;;9.80;99.90;;;;;;5109958;28;20240;-82
2020/12/24 02:45:19;;;;;;;1.60;1.60;;;9.80;99.90;;;;;;5111638;28;20633;-81
2020/12/24 02:47:45;;;;;;;1.90;1.80;;;9.80;99.90;;;;;;5111678;28;20289;-83
2020/12/24 02:50:11;;;;;;;2.10;2.00;;;9.80;99.90;;;;;;5112272;28;20290;-84
2020/12/24 02:52:38;;;;;;;1.83;1.73;;;9.80;99.90;;;;;;5112130;28;20216;-84
2020/12/24 02:55:06;;;;;;;2.40;2.30;;;9.80;99.90;;;;;;5111491;28;20244;-82
2020/12/24 02:57:33;;;;;;;2.23;2.13;;;9.80;99.90;;;;;;5111247;28;20206;-83
2020/12/24 03:00:03;;;;;;;2.87;2.33;;;9.80;99.90;;;;;;5111278;28;20213;-83
2020/12/24 03:02:30;;;;;;;2.50;2.40;;;9.80;99.90;;;;;;5111123;28;20336;-83
2020/12/24 03:04:56;;;;;;;2.73;2.60;;;9.80;99.90;;;;;;5111403;28;20206;-82
2020/12/24 03:07:22;;;;;;;2.37;2.27;;;9.80;99.90;;;;;;5111151;28;20210;-82
2020/12/24 03:09:49;;;;;;;3.00;2.47;;;9.80;99.90;;;;;;5110788;28;20301;-82
2020/12/24 03:12:16;;;;;;;2.60;2.50;;;9.80;99.90;;;;;;5111183;28;20216;-82
2020/12/24 03:14:42;;;;;;;3.13;2.20;;;9.80;99.90;;;;;;5111243;28;20292;-82
2020/12/24 03:17:08;;;;;;;2.37;2.27;;;9.80;99.90;;;;;;5111023;28;20232;-83
2020/12/24 03:19:35;;;;;;;2.27;2.07;;;9.90;99.90;;;;;;5111557;28;20202;-84
2020/12/24 03:22:01;;;;;;;2.23;2.13;;;9.90;99.90;;;;;;5110718;28;20718;-84
2020/12/24 03:24:27;;;;;;;2.43;2.23;;;9.90;99.90;;;;;;5110690;28;20295;-83
2020/12/24 03:26:54;;;;;;;2.50;2.30;;;10.00;99.90;;;;;;5111181;27;20302;-82
2020/12/24 03:29:21;;;;;;;1.83;1.73;;;10.00;99.90;;;;;;5111119;28;20206;-83
2020/12/24 03:31:47;;;;;;;1.93;1.83;;;10.00;99.90;;;;;;5111153;28;20670;-83
2020/12/24 03:34:14;;;;;;;2.20;2.10;;;10.00;99.90;;;;;;5111237;28;20665;-84
2020/12/24 03:36:40;;;;;;;2.40;1.60;;;10.00;99.90;;;;;;5111197;28;20288;-83
2020/12/24 03:39:06;;;;;;;2.23;2.07;;;10.10;99.90;;;;;;5111223;28;20305;-83
2020/12/24 03:41:33;;;;;;;3.60;1.70;;;10.10;99.90;;;;;;5110895;28;20226;-82
2020/12/24 03:43:59;;;;;;;3.27;1.77;;;10.00;99.90;;;;;;5110673;28;20206;-82
2020/12/24 03:46:27;;;;;;;1.57;1.27;;;9.90;99.90;;;;;;5110516;28;20648;-82
2020/12/24 03:48:54;;;;;;;3.27;1.20;;;9.90;99.90;;;;;;5110286;28;20210;-83
2020/12/24 03:51:20;;;;;;;1.77;1.20;;;9.80;99.90;;;;;;5110684;28;20861;-82
2020/12/24 03:53:47;;;;;;;1.57;1.20;;;9.80;99.90;;;;;;5110245;28;20237;-82
2020/12/24 03:56:13;;;;;;;1.60;1.33;;;9.70;99.90;;;;;;5110345;28;20369;-83
2020/12/24 03:58:39;;;;;;;1.53;1.43;;;9.70;99.90;;;;;;5110569;28;20212;-83
2020/12/24 04:01:06;;;;;;;2.37;1.50;;;9.70;99.90;;;;;;5110010;28;20293;-84
2020/12/24 04:03:33;;;;;;;3.13;1.67;;;9.70;99.90;;;;;;5110626;28;20210;-83
2020/12/24 04:05:59;;;;;;;1.80;1.47;;;9.70;99.90;;;;;;5110519;28;20305;-80
2020/12/24 04:08:27;;;;;;;1.57;1.43;;;9.70;99.90;;;;;;5110615;28;20259;-80
2020/12/24 04:10:53;;;;;;;1.63;1.53;;;9.70;99.90;;;;;;5110375;28;20553;-80
2020/12/24 04:13:19;;;;;;;2.60;1.60;;;9.70;99.90;;;;;;5110123;28;20198;-81
2020/12/24 04:15:46;;;;;;;1.60;1.50;;;9.70;99.90;;;;;;5109484;27;20293;-81
2020/12/24 04:18:12;;;;;;;2.30;1.50;;;9.70;99.90;;;;;;5109588;28;20206;-81
2020/12/24 04:20:39;;;;;;;1.70;1.60;;;9.70;99.90;;;;;;5109814;28;21047;-81
2020/12/24 04:23:05;;;;;;;1.70;1.60;;;9.70;99.90;;;;;;5109527;28;20332;-84
2020/12/24 04:25:32;;;;;;;1.53;1.43;;;9.70;99.90;;;;;;5109892;28;20246;-83
2020/12/24 04:27:58;;;;;;;1.83;1.50;;;9.60;99.90;;;;;;5109471;28;20668;-83
2020/12/24 04:30:24;;;;;;;2.67;1.93;;;9.60;99.90;;;;;;5109966;28;20343;-83
2020/12/24 04:32:51;;;;;;;1.57;1.53;;;9.60;99.90;;;;;;5109929;28;20224;-80
2020/12/24 04:35:17;;;;;;;1.70;1.60;;;9.50;99.90;;;;;;5109486;28;20293;-83
2020/12/24 04:37:44;;;;;;;2.00;1.57;;;9.50;99.90;;;;;;5109617;28;20206;-81
2020/12/24 04:40:11;;;;;;;2.53;1.80;;;9.50;99.90;;;;;;5109759;28;20206;-82
2020/12/24 04:42:40;;;;;;;2.77;1.40;;;9.50;99.90;;;;;;5109537;28;20232;-81
2020/12/24 04:45:07;;;;;;;2.83;1.30;;;9.50;99.90;;;;;;5108983;28;20309;-82
2020/12/24 04:47:37;;;;;;;1.33;1.27;;;9.40;99.90;;;;;;5109252;28;20210;-82
2020/12/24 04:50:03;;;;;;;3.30;1.13;;;9.40;99.90;;;;;;5109127;28;20700;-84
2020/12/24 04:52:30;;;;;;;2.83;1.53;;;9.40;99.90;;;;;;5109243;27;20744;-81
2020/12/24 04:54:58;;;;;;;1.17;1.10;;;9.40;99.90;;;;;;5108629;28;20790;-81
2020/12/24 04:57:24;;;;;;;2.93;1.30;;;9.40;99.90;;;;;;5109259;28;20210;-82
2020/12/24 04:59:53;;;;;;;2.70;1.33;;;9.50;99.90;;;;;;5109083;28;20238;-81
2020/12/24 05:02:20;;;;;;;2.40;1.20;;;9.50;99.90;;;;;;5108795;28;20282;-80
2020/12/24 05:04:46;;;;;;;1.87;1.13;;;9.50;99.90;;;;;;5109131;28;20198;-81
2020/12/24 05:07:12;;;;;;;1.90;1.20;;;9.50;99.90;;;;;;5109098;28;20633;-80
2020/12/24 05:09:39;;;;;;;2.77;1.33;;;9.60;99.90;;;;;;5109073;28;20296;-81
2020/12/24 05:12:06;;;;;;;3.73;0.90;;;9.60;99.90;;;;;;5108894;28;20206;-77
2020/12/24 05:14:32;;;;;;;2.43;0.90;;;9.60;99.90;;;;;;5108678;28;20668;-78
2020/12/24 05:17:01;;;;;;;2.67;0.80;;;9.60;99.90;;;;;;5109019;28;20290;-79
2020/12/24 05:19:29;;;;;;;3.27;1.00;;;9.60;99.90;;;;;;5108794;28;20202;-81
2020/12/24 05:21:56;;;;;;;1.33;1.07;;;9.70;99.90;;;;;;5108691;28;20324;-81
2020/12/24 05:24:28;;;;;;;2.60;1.20;;;9.70;99.90;;;;;;5108631;28;20210;-82
2020/12/24 05:27:08;;;;;;;3.20;1.00;;;9.70;99.90;;;;;;5108686;28;20198;-80
2020/12/24 05:29:37;;;;;;;2.60;1.27;;;9.70;99.90;;;;;;5108537;28;20190;-80
2020/12/24 05:32:04;;;;;;;2.00;1.33;;;9.70;99.90;;;;;;5108522;28;20210;-80
2020/12/24 05:34:30;;;;;;;3.73;1.47;;;9.70;99.90;;;;;;5108256;28;20691;-80
2020/12/24 05:37:10;;;;;;;1.20;1.10;;;9.60;99.90;;;;;;5108295;28;20202;-81
2020/12/24 05:39:37;;;;;;;1.50;1.40;;;9.70;99.90;;;;;;5108454;28;20252;-81
2020/12/24 05:42:05;;;;;;;3.80;1.40;;;9.60;99.90;;;;;;5108204;28;20234;-81
2020/12/24 05:44:33;;;;;;;2.03;1.30;;;9.60;99.90;;;;;;5108005;28;20212;-78
2020/12/24 05:46:59;;;;;;;2.30;1.40;;;9.60;99.90;;;;;;5107415;28;20217;-81
2020/12/24 05:49:26;;;;;;;1.43;1.00;;;9.60;99.90;;;;;;5108261;28;20301;-82
2020/12/24 05:51:54;;;;;;;2.87;1.40;;;9.60;99.90;;;;;;5108164;28;20263;-82
2020/12/24 05:54:21;;;;;;;5.13;1.37;;;9.60;99.90;;;;;;5107894;28;20291;-81
2020/12/24 05:56:48;;;;;;;3.83;1.40;;;9.60;99.90;;;;;;5107820;28;20688;-82
2020/12/24 05:59:16;;;;;;;4.33;1.40;;;9.50;99.90;;;;;;5108382;28;20210;-81
2020/12/24 06:01:58;;;;;;;3.33;1.00;;;9.50;99.90;;;;;;5108320;28;20230;-82
2020/12/24 06:04:35;;;;;;;2.77;1.10;;;9.40;99.90;;;;;;5108079;28;20284;-82
2020/12/24 06:07:07;;;;;;;2.80;1.40;;;9.40;99.90;;;;;;5108188;28;20201;-81
2020/12/24 06:09:38;;;;;;;3.67;1.30;;;9.40;99.90;;;;;;5107931;28;20190;-81
2020/12/24 06:12:18;;;;;;;4.00;1.50;;;9.40;99.90;;;;;;5107908;28;20637;-82
2020/12/24 06:14:47;;;;;;;3.03;1.60;;;9.40;99.90;;;;;;5108121;28;20202;-82
2020/12/24 06:17:15;;;;;;;1.93;1.53;;;9.30;99.90;;;;;;5108141;28;20206;-82
2020/12/24 06:19:42;;;;;;;3.00;1.43;;;9.30;99.90;;;;;;5107921;28;20743;-83
2020/12/24 06:22:09;;;;;;;2.23;1.33;;;9.30;99.90;;;;;;5107861;28;20233;-82
2020/12/24 06:24:39;;;;;;;3.27;1.30;;;9.20;99.90;;;;;;5108126;28;20206;-83
2020/12/24 06:27:10;;;;;;;3.53;1.50;;;9.20;99.90;;;;;;5108214;28;20246;-83
2020/12/24 06:29:42;;;;;;;3.43;1.20;;;9.10;99.90;;;;;;5107896;28;20190;-83
2020/12/24 06:32:12;;;;;;;3.97;1.30;;;9.10;99.90;;;;;;5108126;28;20198;-84
2020/12/24 06:34:42;;;;;;;2.40;1.20;;;9.10;99.90;;;;;;5107874;28;20202;-82
2020/12/24 06:37:13;;;;;;;5.50;1.50;;;9.10;99.90;;;;;;5107690;28;20200;-83
2020/12/24 06:39:44;;;;;;;3.80;1.30;;;9.00;99.90;;;;;;5107491;28;21003;-81
2020/12/24 06:42:38;;;;;;;5.60;1.00;;;9.00;99.90;;;;;;5107689;28;20221;-82
2020/12/24 06:45:06;;;;;;;3.67;1.13;;;9.00;99.90;;;;;;5107631;28;20649;-82
2020/12/24 06:47:32;;;;;;;3.73;1.10;;;8.90;99.90;;;;;;5107806;28;20213;-81
2020/12/24 06:49:59;;;;;;;3.03;1.00;;;8.90;99.90;;;;;;5107692;28;20297;-82
2020/12/24 06:52:30;;;;;;;2.03;1.30;;;8.90;99.90;;;;;;5108811;28;20293;-85
2020/12/24 06:55:12;;;;;;;1.90;1.00;;;8.90;99.90;;;;;;5108211;28;20241;-84
2020/12/24 06:57:41;;;;;;;2.23;1.23;;;8.90;99.90;;;;;;5109948;28;20217;-85
2020/12/24 07:00:19;;;;;;;1.13;0.80;;;8.80;99.90;;;;;;5112167;28;20243;-83
2020/12/24 07:02:47;;;;;;;2.27;1.17;;;8.80;99.90;;;;;;5112426;28;20371;-85
2020/12/24 07:05:42;;;;;;;3.33;1.17;;;8.80;99.90;;;;;;5112195;28;20740;-86
2020/12/24 07:08:09;;;;;;;2.83;1.03;;;8.80;99.90;;;;;;5112181;28;20633;-83
2020/12/24 07:10:45;;;;;;;2.73;0.97;;;8.70;99.90;;;;;;5112357;28;20285;-84
2020/12/24 07:13:26;;;;;;;2.83;1.17;;;8.70;99.90;;;;;;5111675;28;20294;-83
2020/12/24 07:15:53;;;;;;;4.87;1.13;;;8.60;99.90;;;;;;5111873;28;20209;-80
2020/12/24 07:18:21;;;;;;;3.57;1.50;;;8.60;99.90;;;;;;5111468;28;20293;-80
2020/12/24 07:20:50;;;;;;;4.50;1.53;;;8.70;99.90;;;;;;5111254;28;20257;-82
2020/12/24 07:23:27;;;;;;;3.47;1.17;;;8.60;99.90;;;;;;5110661;28;20681;-80
2020/12/24 07:25:54;;;;;;;4.13;0.97;;;8.60;99.90;;;;;;5111058;28;20671;-78
2020/12/24 07:28:20;;;;;;;5.90;1.67;;;8.60;99.90;;;;;;5110636;28;20210;-77
2020/12/24 07:30:56;;;;;;;3.27;1.30;;;8.60;99.90;;;;;;5110990;28;20262;-79
2020/12/24 07:33:22;;;;;;;4.53;1.23;;;8.50;99.90;;;;;;5110777;28;20194;-80
2020/12/24 07:35:49;;;;;;;2.83;1.30;;;8.50;99.90;;;;;;5110936;28;20232;-80
2020/12/24 07:38:19;;;;;;;5.90;1.90;;;8.40;99.90;;;;;;5110336;27;20206;-80
2020/12/24 07:40:45;;;;;;;3.57;0.97;;;8.40;99.90;;;;;;5110751;28;20206;-81
2020/12/24 07:43:12;;;;;;;7.50;1.37;;;8.40;99.90;;;;;;5110361;28;20230;-82
2020/12/24 07:45:39;;;;;;;3.77;1.40;;;8.40;99.90;;;;;;5110644;28;20202;-78
2020/12/24 07:48:13;;;;;;;4.70;1.30;;;8.40;99.90;;;;;;5110304;28;20210;-79
2020/12/24 07:50:40;;;;;;;2.57;1.20;;;8.40;99.90;;;;;;5110349;28;20692;-79
2020/12/24 07:53:09;;;;;;;1.67;0.97;;;8.40;99.90;;;;;;5110244;28;20210;-80
2020/12/24 07:55:35;;;;;;;5.80;2.03;;;8.40;99.90;;;;;;5110352;28;20205;-79
2020/12/24 07:58:07;;;;;;;5.00;1.70;;;8.40;99.90;;;;;;5110276;28;20628;-82
2020/12/24 08:00:40;;;;;;;4.27;1.33;;;8.40;99.90;;;;;;5110107;28;20206;-81
2020/12/24 08:03:06;;;;;;;3.43;1.13;;;8.40;99.90;;;;;;5110066;28;20218;-80
2020/12/24 08:05:32;;;;;;;2.33;1.30;;;8.40;99.90;;;;;;5110152;28;20575;-84
2020/12/24 08:07:59;;;;;;;3.80;1.20;;;8.40;99.90;;;;;;5110061;28;20202;-80
2020/12/24 08:10:26;;;;;;;3.90;1.10;;;8.40;99.90;;;;;;5108761;28;20666;-80
2020/12/24 08:12:52;;;;;;;3.43;1.30;;;8.50;99.90;;;;;;5110083;28;20293;-81
2020/12/24 08:15:21;;;;;;;3.97;1.60;;;8.50;99.90;;;;;;5109542;28;20217;-81
2020/12/24 08:17:54;;;;;;;1.97;0.87;;;8.50;99.90;;;;;;5110123;28;20293;-81
2020/12/24 08:20:23;;;;;;;5.30;1.27;;;8.50;99.90;;;;;;5109868;28;20388;-82
2020/12/24 08:22:59;;;;;;;2.80;1.20;;;8.40;99.90;;;;;;5109847;28;20240;-81
2020/12/24 08:25:27;;;;;;;2.03;1.10;;;8.40;99.90;;;;;;5109680;27;20213;-81
2020/12/24 08:27:55;;;;;;;2.90;0.90;;;8.30;99.90;;;;;;5109431;28;20206;-81
2020/12/24 08:30:21;;;;;;;4.20;1.30;;;8.30;99.90;;;;;;5109776;28;20214;-82
2020/12/24 08:32:48;;;;;;;3.47;1.30;;;8.30;99.90;;;;;;5109779;28;20259;-82
2020/12/24 08:35:15;;;;;;;4.60;1.10;;;8.20;99.90;;;;;;5109469;28;20206;-82
2020/12/24 08:37:42;;;;;;;4.27;1.50;;;8.20;99.90;;;;;;5109792;28;20214;-82
2020/12/24 08:40:27;;;;;;;3.43;0.77;;;8.20;99.90;;;;;;5109465;28;20235;-83
2020/12/24 08:42:59;;;;;;;4.77;1.63;;;8.20;99.90;;;;;;5109371;28;20226;-82
2020/12/24 08:45:25;;;;;;;4.57;1.23;;;8.10;99.90;;;;;;5109332;28;20200;-81
2020/12/24 08:47:52;;;;;;;4.60;1.20;;;8.20;99.90;;;;;;5109433;28;20649;-81
2020/12/24 08:50:28;;;;;;;3.17;1.27;;;8.20;99.90;;;;;;5109130;28;20489;-80
2020/12/24 08:52:55;;;;;;;2.67;0.83;;;8.20;99.90;;;;;;5108887;28;20824;-81
2020/12/24 08:55:27;;;;;;;2.37;1.00;;;8.20;99.90;;;;;;5108646;28;20303;-79
2020/12/24 08:57:55;;;;;;;2.10;1.00;;;8.20;99.90;;;;;;5109093;28;20253;-78
2020/12/24 09:00:23;;;;;;;1.77;0.90;;;8.20;99.90;;;;;;5109021;28;20206;-79
2020/12/24 09:02:50;;;;;;;4.00;0.93;;;8.20;99.90;;;;;;5109057;28;20262;-84
2020/12/24 09:05:22;;;;;;;2.10;1.10;;;8.20;99.90;;;;;;5109580;28;20992;-84
2020/12/24 09:07:49;;;;;;;2.97;1.27;;;8.30;99.90;;;;;;5110044;28;20197;-82
2020/12/24 09:10:17;;;;;;;4.03;1.23;;;8.30;99.90;;;;;;5109251;28;20255;-83
2020/12/24 09:12:45;;;;;;;4.40;1.47;;;8.30;99.90;;;;;;5108622;28;20202;-83
2020/12/24 09:15:13;;;;;;;2.90;1.07;;;8.30;99.90;;;;;;5108796;27;20335;-82
2020/12/24 09:17:49;;;;;;;3.30;1.00;;;8.20;99.90;;;;;;5108428;28;20212;-83
2020/12/24 09:20:22;;;;;;;3.50;0.80;;;8.30;99.90;;;;;;5107899;28;20251;-80
2020/12/24 09:22:52;;;;;;;3.13;1.00;;;8.30;99.90;;;;;;5108224;28;20222;-81
2020/12/24 09:25:35;;;;;;;1.40;1.10;;;8.30;99.90;;;;;;5095250;28;20687;-88
2020/12/24 09:28:04;;;;;;;3.70;1.10;;;8.40;99.90;;;;;;5097903;28;20242;-84
2020/12/24 09:30:30;;;;;;;5.50;1.17;;;8.50;99.90;;;;;;5091090;28;20199;-85
2020/12/24 09:32:58;;;;;;;3.87;1.30;;;8.50;99.90;;;;;;5097134;28;20801;-83
2020/12/24 09:35:26;;;;;;;7.33;4.33;;;8.50;99.90;;;;;;5100428;28;20285;-84
2020/12/24 09:37:53;;;;;;;4.00;1.60;;;8.50;99.90;;;;;;5087455;28;21004;-83
2020/12/24 09:40:20;;;;;;;2.37;1.60;;;8.50;99.90;;;;;;5088836;28;20202;-84
2020/12/24 09:42:46;;;;;;;3.50;1.03;;;8.60;99.90;;;;;;5107533;28;20234;-83
2020/12/24 09:45:14;;;;;;;2.47;1.00;;;8.60;99.90;;;;;;5106768;28;20206;-84
2020/12/24 09:47:43;;;;;;;3.77;1.30;;;8.50;99.90;;;;;;5097591;28;20206;-83
2020/12/24 09:50:09;;;;;;;4.00;1.47;;;8.60;99.90;;;;;;5086771;28;20215;-83
2020/12/24 09:52:35;;;;;;;2.23;0.93;;;8.60;99.90;;;;;;5087414;28;20198;-83
2020/12/24 09:55:02;;;;;;;2.73;1.30;;;8.60;99.90;;;;;;5106452;28;20720;-84
2020/12/24 09:57:28;;;;;;;4.37;1.00;;;8.60;99.90;;;;;;5106737;28;20202;-79
2020/12/24 09:59:54;;;;;;;5.50;2.60;;;8.60;99.90;;;;;;5097284;28;20194;-79
2020/12/24 10:02:23;;;;;;;4.87;3.90;;;8.70;99.90;;;;;;5091707;28;20597;-83
2020/12/24 10:04:49;;;;;;;3.50;1.47;;;8.70;99.90;;;;;;5088595;28;20214;-84
2020/12/24 10:07:16;;;;;;;3.60;1.20;;;8.70;99.90;;;;;;5090620;28;20718;-83
2020/12/24 10:09:42;;;;;;;2.70;1.07;;;8.70;99.90;;;;;;5088636;28;20215;-82
2020/12/24 10:12:08;;;;;;;2.67;1.03;;;8.70;99.90;;;;;;5087800;28;20317;-84
2020/12/24 10:14:35;;;;;;;3.60;0.87;;;8.70;99.90;;;;;;5094706;28;20201;-82
2020/12/24 10:17:05;;;;;;;2.63;0.97;;;8.70;99.90;;;;;;5093766;28;20335;-83
2020/12/24 10:19:32;;;;;;;2.00;1.23;;;8.60;99.90;;;;;;5088391;28;20206;-84
2020/12/24 10:21:58;;;;;;;3.67;1.60;;;8.60;99.90;;;;;;5092585;28;20588;-84
2020/12/24 10:24:24;;;;;;;2.93;1.10;;;8.60;99.90;;;;;;5097431;28;20312;-83
2020/12/24 10:26:54;;;;;;;2.20;0.93;;;8.60;99.90;;;;;;5097409;28;20252;-82
2020/12/24 10:29:20;;;;;;;6.10;1.43;;;8.60;99.90;;;;;;5096280;28;20198;-82
2020/12/24 10:31:47;;;;;;;5.07;1.33;;;8.60;99.90;;;;;;5100918;28;20672;-81
2020/12/24 10:34:13;;;;;;;2.40;1.03;;;8.60;99.90;;;;;;5098338;28;20289;-81
2020/12/24 10:36:41;;;;;;;5.57;1.87;;;8.60;99.90;;;;;;5098243;28;20199;-82
2020/12/24 10:39:09;;;;;;;3.73;1.30;;;8.50;99.90;;;;;;5091802;28;20206;-83
2020/12/24 10:41:36;;;;;;;1.43;1.33;;;8.50;99.90;;;;;;5091436;28;20210;-83
2020/12/24 10:44:02;;;;;;;4.17;1.47;;;8.40;99.90;;;;;;5092016;28;20733;-83
2020/12/24 10:46:29;;;;;;;1.93;1.10;;;8.40;99.90;;;;;;5091712;28;20198;-84
2020/12/24 10:48:55;;;;;;;4.50;1.00;;;8.30;99.90;;;;;;5091763;28;20195;-83
2020/12/24 10:51:22;;;;;;;3.37;1.10;;;8.20;99.90;;;;;;5091903;28;20731;-81
2020/12/24 10:53:50;;;;;;;1.63;0.87;;;8.20;99.90;;;;;;5091633;28;20226;-83
2020/12/24 10:56:16;;;;;;;2.60;1.10;;;8.10;99.90;;;;;;5091507;28;20199;-84
2020/12/24 10:58:43;;;;;;;3.60;1.10;;;8.00;99.90;;;;;;5091561;28;20294;-84
2020/12/24 11:01:11;;;;;;;6.43;4.17;;;8.00;99.90;;;;;;5091589;28;20207;-85
2020/12/24 11:03:38;;;;;;;5.60;2.30;;;8.00;99.90;;;;;;5091712;28;20256;-84
2020/12/24 11:06:06;;;;;;;3.30;1.30;;;7.90;99.90;;;;;;5091984;28;20210;-83
2020/12/24 11:08:32;;;;;;;1.17;0.73;;;7.80;99.90;;;;;;5092199;28;20297;-84
2020/12/24 11:10:59;;;;;;;0.40;0.30;;;7.60;99.90;;;;;;5092235;28;20302;-83
2020/12/24 11:13:26;;;;;;;0.47;0.30;;;7.30;99.90;;;;;;5091974;28;20202;-84
2020/12/24 11:15:52;;;;;;;0.63;0.40;;;7.20;99.90;;;;;;5091752;28;20301;-85
2020/12/24 11:18:18;;;;;;;0.10;0.10;;;7.10;99.90;;;;;;5091739;28;20202;-84
2020/12/24 11:20:45;;;;;;;0.10;0.10;;;7.10;99.90;;;;;;5091704;28;20269;-82
2020/12/24 11:23:11;;;;;;;0.10;0.10;;;7.00;99.90;;;;;;5089800;28;20309;-82
2020/12/24 11:25:38;;;;;;;0.23;0.10;;;7.00;99.90;;;;;;5091244;28;20205;-82
2020/12/24 11:28:05;;;;;;;0.10;0.10;;;6.90;99.90;;;;;;5093515;28;20298;-83
2020/12/24 11:30:32;;;;;;;0.57;0.20;;;6.90;99.90;;;;;;5102390;28;20276;-83
2020/12/24 11:32:59;;;;;;;0.57;0.20;;;6.80;99.90;;;;;;5102907;28;20206;-83
2020/12/24 11:35:26;;;;;;;0.20;0.20;;;6.90;99.90;;;;;;5096784;28;20206;-82
2020/12/24 11:37:52;;;;;;;3.90;3.70;;;6.90;99.90;;;;;;5107634;28;20703;-80
2020/12/24 11:40:19;;;;;;;2.40;2.30;;;6.90;99.90;;;;;;5102034;28;20202;-80
2020/12/24 11:42:45;;;;;;;0.10;0.10;;;7.00;99.90;;;;;;5098230;28;20226;-83
2020/12/24 11:45:12;;;;;;;0.30;0.30;;;7.00;99.90;;;;;;5094748;28;20203;-83
2020/12/24 11:47:38;;;;;;;0.23;0.23;;;7.00;99.90;;;;;;5101839;28;20298;-83
2020/12/24 11:50:06;;;;;;;0.50;0.50;;;6.90;99.90;;;;;;5099933;28;20243;-84
2020/12/24 11:52:35;;;;;;;0.30;0.30;;;6.90;99.90;;;;;;5094681;28;20677;-82
2020/12/24 11:55:02;;;;;;;0.10;0.10;;;6.80;99.90;;;;;;5105271;28;20329;-83
2020/12/24 11:57:28;;;;;;;0.07;0.07;;;6.70;99.90;;;;;;5101755;28;20726;-83
2020/12/24 11:59:54;;;;;;;0.20;0.20;;;6.70;99.90;;;;;;5101619;28;20814;-85
2020/12/24 12:02:22;;;;;;;0.20;0.20;;;6.60;99.90;;;;;;5098279;28;20232;-84
2020/12/24 12:04:48;;;;;;;0.70;0.27;;;6.60;99.90;;;;;;5102388;28;20216;-84
2020/12/24 12:07:14;;;;;;;0.40;0.40;;;6.60;99.90;;;;;;5099313;28;20227;-84
2020/12/24 12:09:41;;;;;;;0.70;0.40;;;6.60;99.90;;;;;;5095882;28;20294;-84
2020/12/24 12:12:07;;;;;;;0.90;0.23;;;6.60;99.90;;;;;;5096942;28;20626;-83
2020/12/24 12:14:34;;;;;;;0.20;0.20;;;6.60;99.90;;;;;;5105669;28;20221;-83
2020/12/24 12:17:00;;;;;;;0.30;0.30;;;6.60;99.90;;;;;;5101652;28;20198;-84
2020/12/24 12:19:28;;;;;;;0.30;0.30;;;6.60;99.90;;;;;;5102998;28;20267;-83
2020/12/24 12:21:54;;;;;;;0.30;0.30;;;6.60;99.90;;;;;;5093670;28;20218;-83
2020/12/24 12:24:20;;;;;;;0.50;0.50;;;6.70;99.90;;;;;;5104163;28;20209;-84
2020/12/24 12:26:47;;;;;;;0.10;0.10;;;6.70;99.90;;;;;;5102685;28;20339;-84
2020/12/24 12:29:14;;;;;;;0.13;0.10;;;6.70;99.90;;;;;;5092529;28;20205;-84
2020/12/24 12:31:40;;;;;;;0.10;0.10;;;6.70;99.90;;;;;;5090285;28;20289;-84
2020/12/24 12:34:07;;;;;;;0.27;0.27;;;6.70;99.90;;;;;;5106257;28;20206;-83
2020/12/24 12:36:34;;;;;;;0.20;0.20;;;6.70;99.90;;;;;;5096441;28;20213;-84
2020/12/24 12:39:00;;;;;;;0.20;0.20;;;6.70;99.90;;;;;;5102063;28;20299;-84
2020/12/24 12:41:26;;;;;;;0.10;0.10;;;6.60;99.90;;;;;;5101564;28;20207;-84
2020/12/24 12:43:55;;;;;;;0.20;0.20;;;6.60;99.90;;;;;;5097876;28;20310;-84
2020/12/24 12:46:22;;;;;;;0.10;0.10;;;6.60;99.90;;;;;;5095202;28;20199;-86
2020/12/24 12:48:49;;;;;;;0.17;0.17;;;6.40;99.90;;;;;;5096584;28;20214;-84
2020/12/24 12:51:16;;;;;;;0.37;0.20;;;6.30;99.90;;;;;;5096045;28;20191;-82
2020/12/24 12:53:43;;;;;;;0.40;0.40;;;6.30;99.90;;;;;;5097703;28;20791;-82
2020/12/24 12:56:10;;;;;;;0.50;0.20;;;6.30;99.90;;;;;;5087564;28;20210;-84
2020/12/24 12:58:40;;;;;;;0.20;0.10;;;6.20;99.90;;;;;;5087935;28;20636;-83